Terminal Aerodrome Forecast
Issued by NWS El Paso, TX

Home | Current Version | Previous Version | Text Only | Print | Product List | Glossary On
Versions: 1 2 3 4 5 6 7 8 9 10 11 12 13
000
FTUS44 KEPZ 261720
TAFELP
TAF
KELP 261720Z 2618/2718 01010KT P6SM FEW050 SCT110 BKN250
     FM262100 10008KT P6SM VCTS SCT090CB SCT150
      TEMPO 2623/2702 VRB25G40KT P6SM -TSRAGS BKN090CB
     FM270400 11007KT P6SM FEW090 SCT130 BKN250
     FM271700 06007KT P6SM FEW130 SCT250=

USA.gov is the U.S. government's official web portal to all federal, state and local government web resources and services.